createdAt,value
2019-03-29T00:02:06.382Z,1.80
2019-03-29T00:04:35.242Z,1.60
2019-03-29T00:07:04.294Z,2.50
2019-03-29T00:09:33.115Z,1.60
2019-03-29T00:12:01.956Z,1.60
2019-03-29T00:14:30.875Z,1.70
2019-03-29T00:16:59.766Z,1.80
2019-03-29T00:19:28.619Z,2.03
2019-03-29T00:21:57.440Z,1.60
2019-03-29T00:24:26.278Z,1.70
2019-03-29T00:26:55.114Z,2.20
2019-03-29T00:29:23.946Z,2.10
2019-03-29T00:31:52.851Z,1.57
2019-03-29T00:34:21.934Z,1.70
2019-03-29T00:36:51.921Z,2.50
2019-03-29T00:39:20.867Z,1.70
2019-03-29T00:41:50.299Z,1.60
2019-03-29T00:44:19.811Z,1.80
2019-03-29T00:46:48.702Z,1.90
2019-03-29T00:49:17.546Z,1.67
2019-03-29T00:51:46.367Z,1.60
2019-03-29T00:54:15.200Z,1.83
2019-03-29T00:56:44.059Z,1.60
2019-03-29T00:59:12.883Z,1.67
2019-03-29T01:01:41.823Z,2.30
2019-03-29T01:04:10.669Z,2.30
2019-03-29T01:06:39.506Z,1.70
2019-03-29T01:09:08.351Z,1.67
2019-03-29T01:11:37.198Z,2.03
2019-03-29T01:14:06.038Z,1.70
2019-03-29T01:16:34.846Z,1.40
2019-03-29T01:19:04.022Z,2.23
2019-03-29T01:21:32.871Z,2.20
2019-03-29T01:24:01.761Z,1.70
2019-03-29T01:26:30.650Z,1.60
2019-03-29T01:28:59.489Z,1.80
2019-03-29T01:31:28.390Z,1.70
2019-03-29T01:33:57.234Z,1.80
2019-03-29T01:36:26.063Z,1.90
2019-03-29T01:38:54.901Z,2.30
2019-03-29T01:41:23.768Z,1.80
2019-03-29T01:43:52.605Z,1.70
2019-03-29T01:46:21.446Z,2.30
2019-03-29T01:48:50.294Z,1.73
2019-03-29T01:51:19.127Z,2.00
2019-03-29T01:53:47.967Z,1.70
2019-03-29T01:56:16.902Z,1.93
2019-03-29T01:58:45.743Z,1.63
2019-03-29T02:01:14.570Z,2.20
2019-03-29T02:03:43.423Z,2.43
2019-03-29T02:06:12.299Z,1.80
2019-03-29T02:08:41.160Z,2.30
2019-03-29T02:11:09.996Z,2.43
2019-03-29T02:13:38.855Z,1.70
2019-03-29T02:16:07.715Z,2.00
2019-03-29T02:18:36.547Z,2.43
2019-03-29T02:21:05.431Z,1.80
2019-03-29T02:23:34.316Z,2.50
2019-03-29T02:26:03.148Z,1.90
2019-03-29T02:28:31.991Z,1.80
2019-03-29T02:31:00.868Z,1.90
2019-03-29T02:33:29.717Z,1.90
2019-03-29T02:35:58.821Z,1.87
2019-03-29T02:38:27.716Z,1.80
2019-03-29T02:40:56.531Z,1.90
2019-03-29T02:43:25.380Z,2.20
2019-03-29T02:45:54.193Z,1.80
2019-03-29T02:48:23.017Z,1.83
2019-03-29T02:50:51.860Z,1.80
2019-03-29T02:53:20.797Z,2.00
2019-03-29T02:55:49.716Z,2.10
2019-03-29T02:58:18.545Z,2.50
2019-03-29T03:00:48.177Z,1.80
2019-03-29T03:03:17.271Z,1.80
2019-03-29T03:05:46.144Z,1.87
2019-03-29T03:08:14.951Z,2.60
2019-03-29T03:10:43.775Z,1.87
2019-03-29T03:13:12.663Z,2.37
2019-03-29T03:15:41.664Z,1.80
2019-03-29T03:18:10.500Z,1.90
2019-03-29T03:20:39.335Z,1.90
2019-03-29T03:23:08.148Z,1.80
2019-03-29T03:25:36.978Z,1.70
2019-03-29T03:28:05.826Z,1.83
2019-03-29T03:30:34.635Z,1.80
2019-03-29T03:33:03.587Z,1.90
2019-03-29T03:35:32.438Z,2.00
2019-03-29T03:38:01.345Z,2.60
2019-03-29T03:40:30.181Z,2.00
2019-03-29T03:42:59.093Z,2.00
2019-03-29T03:45:27.911Z,1.90
2019-03-29T03:47:56.731Z,1.97
2019-03-29T03:50:50.739Z,2.00
2019-03-29T03:53:19.555Z,2.10
2019-03-29T03:55:48.383Z,2.00
2019-03-29T03:58:17.210Z,2.10
2019-03-29T04:00:52.724Z,1.90
2019-03-29T04:03:22.015Z,2.00
2019-03-29T04:05:50.950Z,1.97
2019-03-29T04:08:19.786Z,1.90
2019-03-29T04:10:48.618Z,1.90
2019-03-29T04:13:17.446Z,2.30
2019-03-29T04:15:46.393Z,1.80
2019-03-29T04:18:16.116Z,1.90
2019-03-29T04:20:45.564Z,2.00
2019-03-29T04:23:15.917Z,2.00
2019-03-29T04:25:44.789Z,2.00
2019-03-29T04:28:13.619Z,2.63
2019-03-29T04:30:42.503Z,1.93
2019-03-29T04:33:11.600Z,2.00
2019-03-29T04:35:40.490Z,1.90
2019-03-29T04:38:09.357Z,2.00
2019-03-29T04:40:38.198Z,2.00
2019-03-29T04:43:07.084Z,2.00
2019-03-29T04:45:35.957Z,2.73
2019-03-29T04:48:04.867Z,1.90
2019-03-29T04:50:33.672Z,1.60
2019-03-29T04:53:02.566Z,2.37
2019-03-29T04:55:31.425Z,2.00
2019-03-29T04:58:00.309Z,1.97
2019-03-29T05:00:29.136Z,1.90
2019-03-29T05:02:57.967Z,2.20
2019-03-29T05:05:26.785Z,2.10
2019-03-29T05:07:55.593Z,2.10
2019-03-29T05:10:24.450Z,2.10
2019-03-29T05:12:53.263Z,2.20
2019-03-29T05:15:22.076Z,2.20
2019-03-29T05:17:50.921Z,2.10
2019-03-29T05:20:19.782Z,2.40
2019-03-29T05:22:48.667Z,2.10
2019-03-29T05:25:17.544Z,1.70
2019-03-29T05:27:46.380Z,2.60
2019-03-29T05:30:15.187Z,2.47
2019-03-29T05:32:44.066Z,1.90
2019-03-29T05:35:12.911Z,2.00
2019-03-29T05:37:41.734Z,1.90
2019-03-29T05:40:10.586Z,2.07
2019-03-29T05:42:39.406Z,1.90
2019-03-29T05:45:08.222Z,1.70
2019-03-29T05:47:37.091Z,2.00
2019-03-29T05:50:05.947Z,2.50
2019-03-29T05:52:34.773Z,1.90
2019-03-29T05:55:03.668Z,1.90
2019-03-29T05:57:32.496Z,2.07
2019-03-29T06:00:01.306Z,2.50
2019-03-29T06:02:30.229Z,2.10
2019-03-29T06:04:59.098Z,2.60
2019-03-29T06:07:27.909Z,2.00
2019-03-29T06:09:56.834Z,2.50
2019-03-29T06:12:25.651Z,2.00
2019-03-29T06:14:54.458Z,2.00
2019-03-29T06:17:23.340Z,2.60
2019-03-29T06:19:52.182Z,2.00
2019-03-29T06:22:21.035Z,2.00
2019-03-29T06:24:49.867Z,1.80
2019-03-29T06:27:18.710Z,2.20
2019-03-29T06:29:47.560Z,1.90
2019-03-29T06:32:16.469Z,1.70
2019-03-29T06:34:45.323Z,1.97
2019-03-29T06:37:14.348Z,1.77
2019-03-29T06:39:43.205Z,2.40
2019-03-29T06:42:12.046Z,2.00
2019-03-29T06:44:44.098Z,1.93
2019-03-29T06:47:11.441Z,1.70
2019-03-29T06:49:40.269Z,1.90
2019-03-29T06:52:09.130Z,2.60
2019-03-29T06:54:37.973Z,2.00
2019-03-29T06:57:06.800Z,1.57
2019-03-29T06:59:35.629Z,1.80
2019-03-29T07:02:04.485Z,1.53
2019-03-29T07:04:33.297Z,1.80
2019-03-29T07:07:02.119Z,2.07
2019-03-29T07:09:30.977Z,2.00
2019-03-29T07:11:59.802Z,1.70
2019-03-29T07:14:28.615Z,1.57
2019-03-29T07:16:57.506Z,1.70
2019-03-29T07:19:26.325Z,1.70
2019-03-29T07:21:55.295Z,1.80
2019-03-29T07:24:25.862Z,2.10
2019-03-29T07:26:55.224Z,2.30
2019-03-29T07:29:24.089Z,2.13
2019-03-29T07:31:53.972Z,1.40
2019-03-29T07:34:23.399Z,2.10
2019-03-29T07:36:52.254Z,2.50
2019-03-29T07:39:21.170Z,1.50
2019-03-29T07:41:50.015Z,1.40
2019-03-29T07:44:18.834Z,2.00
2019-03-29T07:46:47.681Z,1.30
2019-03-29T07:49:16.499Z,1.60
2019-03-29T07:51:45.327Z,1.77
2019-03-29T07:54:14.173Z,1.30
2019-03-29T07:56:42.991Z,1.40
2019-03-29T07:59:11.842Z,2.10
2019-03-29T08:01:40.685Z,1.40
2019-03-29T08:04:09.510Z,2.10
2019-03-29T08:06:39.126Z,1.30
2019-03-29T08:09:21.324Z,1.50
2019-03-29T08:11:46.249Z,1.80
2019-03-29T08:14:09.390Z,1.50
2019-03-29T08:16:38.231Z,1.60
2019-03-29T08:19:07.097Z,1.70
2019-03-29T08:21:35.963Z,1.83
2019-03-29T08:24:04.831Z,1.43
2019-03-29T08:26:33.647Z,1.40
2019-03-29T08:29:02.491Z,1.40
2019-03-29T08:31:31.407Z,1.50
2019-03-29T08:34:00.289Z,1.40
2019-03-29T08:36:29.115Z,1.30
2019-03-29T08:38:57.985Z,1.80
2019-03-29T08:41:26.794Z,1.40
2019-03-29T08:43:55.627Z,1.30
2019-03-29T08:46:24.469Z,1.20
2019-03-29T08:48:53.355Z,1.20
2019-03-29T08:51:22.167Z,1.40
2019-03-29T08:53:51.096Z,1.30
2019-03-29T08:56:19.927Z,1.23
2019-03-29T08:58:48.752Z,1.30
2019-03-29T09:01:19.310Z,1.30
2019-03-29T09:04:02.641Z,1.20
2019-03-29T09:06:18.758Z,1.10
2019-03-29T09:08:47.686Z,1.60
2019-03-29T09:11:16.545Z,1.20
2019-03-29T09:13:45.447Z,1.40
2019-03-29T09:16:14.295Z,1.30
2019-03-29T09:18:43.119Z,1.20
2019-03-29T09:21:12.009Z,1.20
2019-03-29T09:23:40.850Z,1.20
2019-03-29T09:26:09.694Z,1.30
2019-03-29T09:28:38.508Z,1.20
2019-03-29T09:31:26.255Z,1.20
2019-03-29T09:33:58.400Z,1.00
2019-03-29T09:36:25.646Z,1.10
2019-03-29T09:38:54.491Z,1.10
2019-03-29T09:41:23.329Z,1.00
2019-03-29T09:43:54.291Z,1.10
2019-03-29T09:46:22.710Z,1.40
2019-03-29T09:48:51.530Z,1.00
2019-03-29T09:51:20.367Z,1.20
2019-03-29T09:53:49.382Z,1.00
2019-03-29T09:56:18.221Z,1.10
2019-03-29T09:58:47.078Z,1.00
2019-03-29T10:01:16.149Z,1.10
2019-03-29T10:03:45.030Z,1.00
2019-03-29T10:06:15.438Z,1.13
2019-03-29T10:08:44.522Z,1.40
2019-03-29T10:11:13.366Z,1.50
2019-03-29T10:13:42.238Z,1.13
2019-03-29T10:16:11.130Z,1.00
2019-03-29T10:18:39.951Z,1.00
2019-03-29T10:21:08.778Z,1.03
2019-03-29T10:23:37.609Z,1.00
2019-03-29T10:26:06.435Z,0.90
2019-03-29T10:28:35.284Z,1.00
2019-03-29T10:31:04.232Z,1.00
2019-03-29T10:33:33.074Z,1.10
2019-03-29T10:36:01.894Z,1.10
2019-03-29T10:38:30.743Z,0.90
2019-03-29T10:40:59.570Z,1.00
2019-03-29T10:43:28.402Z,1.00
2019-03-29T10:45:57.643Z,1.00
2019-03-29T10:48:26.470Z,1.10
2019-03-29T10:50:55.334Z,0.90
2019-03-29T10:53:24.198Z,0.90
2019-03-29T10:55:53.020Z,1.00
2019-03-29T10:58:21.846Z,1.00
2019-03-29T11:00:50.690Z,0.90
2019-03-29T11:03:19.590Z,1.00
2019-03-29T11:05:48.449Z,0.90
2019-03-29T11:08:17.263Z,0.90
2019-03-29T11:10:46.128Z,1.00
2019-03-29T11:13:15.180Z,0.90
2019-03-29T11:15:44.058Z,0.90
2019-03-29T11:18:12.906Z,0.90
2019-03-29T11:20:41.855Z,1.00
2019-03-29T11:23:10.683Z,0.80
2019-03-29T11:25:39.504Z,0.90
2019-03-29T11:28:08.394Z,0.90
2019-03-29T11:30:42.489Z,0.90
2019-03-29T11:33:07.891Z,0.80
2019-03-29T11:35:36.850Z,0.80
2019-03-29T11:38:05.687Z,1.00
2019-03-29T11:40:34.495Z,1.10
2019-03-29T11:43:03.371Z,0.90
2019-03-29T11:45:32.239Z,0.90
2019-03-29T11:48:08.251Z,1.00
2019-03-29T11:50:31.635Z,1.00
2019-03-29T11:53:00.448Z,0.90
2019-03-29T11:55:29.263Z,0.80
2019-03-29T11:57:58.312Z,0.90
2019-03-29T12:00:33.178Z,1.00
2019-03-29T12:03:02.134Z,0.93
2019-03-29T12:05:30.989Z,0.80
2019-03-29T12:07:59.809Z,0.80
2019-03-29T12:10:28.643Z,0.90
2019-03-29T12:12:57.468Z,0.90
2019-03-29T12:15:26.295Z,0.80
2019-03-29T12:17:55.142Z,0.83
2019-03-29T12:20:23.960Z,0.70
2019-03-29T12:22:53.334Z,1.00
2019-03-29T12:25:22.178Z,0.90
2019-03-29T12:27:51.016Z,1.00
2019-03-29T12:30:31.199Z,1.00
2019-03-29T12:32:50.335Z,0.90
2019-03-29T12:35:19.231Z,0.80
2019-03-29T12:37:48.059Z,0.70
2019-03-29T12:40:16.915Z,0.90
2019-03-29T12:42:45.728Z,0.90
2019-03-29T12:45:14.542Z,0.90
2019-03-29T12:47:43.398Z,0.83
2019-03-29T12:50:12.240Z,1.00
2019-03-29T12:52:41.087Z,0.83
2019-03-29T12:55:09.959Z,0.80
2019-03-29T12:57:39.451Z,1.00
2019-03-29T13:00:08.796Z,0.80
2019-03-29T13:02:37.659Z,0.90
2019-03-29T13:05:06.549Z,0.90
2019-03-29T13:07:35.367Z,0.90
2019-03-29T13:10:04.834Z,0.80
2019-03-29T13:12:33.658Z,0.77
2019-03-29T13:15:02.475Z,0.80
2019-03-29T13:17:31.316Z,0.80
2019-03-29T13:20:00.372Z,0.90
2019-03-29T13:22:29.250Z,0.80
2019-03-29T13:24:58.104Z,0.80
2019-03-29T13:27:26.946Z,0.90
2019-03-29T13:29:55.778Z,1.10
2019-03-29T13:32:24.678Z,0.90
2019-03-29T13:34:53.513Z,0.80
2019-03-29T13:37:22.334Z,0.80
2019-03-29T13:39:51.200Z,0.80
2019-03-29T13:42:20.026Z,0.80
2019-03-29T13:44:48.857Z,0.90
2019-03-29T13:47:18.292Z,0.80
2019-03-29T13:49:47.270Z,0.80
2019-03-29T13:52:16.116Z,0.80
2019-03-29T13:54:44.979Z,0.70
2019-03-29T13:57:13.810Z,0.80
2019-03-29T13:59:42.698Z,0.80
2019-03-29T14:02:11.531Z,0.83
2019-03-29T14:04:40.386Z,0.70
2019-03-29T14:07:09.206Z,0.80
2019-03-29T14:09:38.063Z,0.80
2019-03-29T14:12:06.906Z,0.80
2019-03-29T14:14:38.314Z,0.70
2019-03-29T14:17:06.301Z,0.70
2019-03-29T14:19:35.143Z,0.70
2019-03-29T14:22:03.985Z,0.73
2019-03-29T14:24:32.930Z,1.10
2019-03-29T14:27:01.742Z,0.60
2019-03-29T14:29:30.582Z,0.70
2019-03-29T14:31:59.502Z,0.70
2019-03-29T14:34:28.379Z,0.70
2019-03-29T14:36:59.332Z,0.70
2019-03-29T14:39:27.875Z,0.70
2019-03-29T14:41:56.795Z,0.80
2019-03-29T14:44:25.790Z,0.70
2019-03-29T14:46:54.645Z,0.80
2019-03-29T14:49:23.484Z,0.70
2019-03-29T14:51:52.434Z,0.70
2019-03-29T14:54:21.290Z,0.77
2019-03-29T14:56:50.135Z,0.80
2019-03-29T14:59:18.970Z,0.80
2019-03-29T15:01:47.795Z,0.70
2019-03-29T15:04:16.620Z,0.80
2019-03-29T15:06:45.480Z,0.70
2019-03-29T15:09:14.310Z,0.73
2019-03-29T15:11:43.135Z,0.80
2019-03-29T15:14:11.992Z,0.90
2019-03-29T15:16:59.716Z,1.10
2019-03-29T15:19:28.820Z,0.73
2019-03-29T15:21:57.580Z,0.80
2019-03-29T15:24:26.454Z,0.90
2019-03-29T15:26:55.302Z,0.90
2019-03-29T15:29:24.117Z,0.80
2019-03-29T15:31:52.969Z,0.90
2019-03-29T15:34:21.884Z,0.80
2019-03-29T15:36:50.730Z,0.90
2019-03-29T15:39:19.603Z,0.90
2019-03-29T15:41:48.469Z,0.80
2019-03-29T15:44:17.322Z,0.90
2019-03-29T15:46:46.162Z,0.83
2019-03-29T15:49:15.017Z,0.90
2019-03-29T15:51:43.842Z,0.80
2019-03-29T15:54:12.704Z,0.90
2019-03-29T15:56:41.551Z,0.80
2019-03-29T15:59:10.439Z,0.90
2019-03-29T16:01:39.271Z,0.80
2019-03-29T16:04:08.680Z,0.80
2019-03-29T16:06:37.638Z,0.90
2019-03-29T16:09:06.686Z,0.80
2019-03-29T16:11:36.091Z,0.80
2019-03-29T16:14:05.074Z,0.80
2019-03-29T16:16:33.962Z,0.80
2019-03-29T16:19:02.812Z,0.90
2019-03-29T16:21:31.679Z,0.90
2019-03-29T16:24:00.516Z,0.90
2019-03-29T16:26:29.400Z,0.97
2019-03-29T16:28:58.317Z,0.90
2019-03-29T16:31:27.139Z,0.80
2019-03-29T16:33:56.027Z,0.80
2019-03-29T16:36:24.855Z,0.80
2019-03-29T16:38:53.706Z,0.90
2019-03-29T16:41:22.580Z,0.87
2019-03-29T16:43:51.404Z,0.80
2019-03-29T16:46:20.247Z,0.83
2019-03-29T16:48:49.127Z,0.90
2019-03-29T16:51:18.034Z,0.80
2019-03-29T16:53:46.942Z,1.00
2019-03-29T16:56:15.828Z,0.80
2019-03-29T16:58:44.663Z,1.00
2019-03-29T17:01:13.704Z,1.00
2019-03-29T17:03:42.720Z,0.93
2019-03-29T17:06:11.606Z,0.90
2019-03-29T17:08:40.455Z,0.93
2019-03-29T17:11:09.408Z,0.90
2019-03-29T17:13:38.302Z,1.00
2019-03-29T17:16:07.183Z,1.30
2019-03-29T17:18:36.075Z,0.80
2019-03-29T17:21:05.036Z,0.90
2019-03-29T17:23:33.959Z,1.00
2019-03-29T17:26:02.881Z,0.90
2019-03-29T17:28:31.722Z,0.90
2019-03-29T17:31:03.187Z,0.90
2019-03-29T17:33:32.072Z,0.90
2019-03-29T17:36:00.990Z,1.50
2019-03-29T17:38:30.062Z,1.10
2019-03-29T17:40:58.918Z,0.97
2019-03-29T17:43:27.848Z,0.90
2019-03-29T17:45:56.715Z,1.00
2019-03-29T17:48:25.566Z,1.00
2019-03-29T17:51:13.646Z,1.10
2019-03-29T17:53:44.278Z,1.10
2019-03-29T17:56:13.193Z,1.00
2019-03-29T17:58:42.093Z,1.10
2019-03-29T18:01:10.987Z,1.10
2019-03-29T18:03:39.896Z,1.00
2019-03-29T18:06:08.782Z,1.10
2019-03-29T18:08:37.690Z,1.10
2019-03-29T18:11:06.635Z,1.13
2019-03-29T18:13:35.535Z,1.00
2019-03-29T18:16:04.379Z,1.00
2019-03-29T18:18:33.316Z,1.00
2019-03-29T18:21:02.159Z,1.00
2019-03-29T18:23:31.082Z,1.20
2019-03-29T18:25:59.935Z,1.20
2019-03-29T18:28:28.901Z,1.20
2019-03-29T18:30:57.857Z,1.20
2019-03-29T18:33:26.718Z,1.20
2019-03-29T18:35:55.538Z,0.90
2019-03-29T18:38:24.716Z,1.10
2019-03-29T18:40:53.602Z,1.10
2019-03-29T18:43:22.534Z,1.27
2019-03-29T18:45:51.545Z,1.20
2019-03-29T18:48:20.490Z,1.20
2019-03-29T18:50:49.388Z,1.20
2019-03-29T18:53:18.251Z,1.30
2019-03-29T18:55:47.179Z,1.30
2019-03-29T18:58:16.061Z,1.20
2019-03-29T19:00:44.938Z,1.30
2019-03-29T19:03:13.858Z,1.30
2019-03-29T19:05:42.709Z,1.23
2019-03-29T19:08:11.592Z,1.20
2019-03-29T19:10:40.511Z,1.20
2019-03-29T19:13:09.466Z,1.20
2019-03-29T19:15:38.336Z,1.30
2019-03-29T19:18:07.294Z,1.20
2019-03-29T19:20:36.171Z,1.23
2019-03-29T19:23:05.040Z,1.20
2019-03-29T19:25:33.906Z,1.20
2019-03-29T19:28:02.803Z,1.23
2019-03-29T19:30:31.684Z,1.20
2019-03-29T19:33:00.517Z,1.30
2019-03-29T19:35:29.446Z,1.40
2019-03-29T19:37:58.301Z,1.27
2019-03-29T19:40:27.156Z,1.33
2019-03-29T19:42:56.066Z,1.30
2019-03-29T19:45:25.016Z,1.30
2019-03-29T19:47:53.884Z,1.27
2019-03-29T19:50:22.747Z,1.20
2019-03-29T19:52:51.630Z,1.30
2019-03-29T19:55:20.509Z,1.13
2019-03-29T19:57:49.504Z,1.20
2019-03-29T20:00:18.375Z,1.20
2019-03-29T20:02:47.300Z,1.20
2019-03-29T20:05:34.099Z,1.40
2019-03-29T20:08:02.966Z,1.30
2019-03-29T20:10:31.972Z,1.47
2019-03-29T20:13:00.825Z,1.30
2019-03-29T20:15:29.755Z,1.20
2019-03-29T20:17:58.658Z,1.30
2019-03-29T20:20:27.663Z,1.33
2019-03-29T20:22:56.564Z,1.40
2019-03-29T20:25:25.480Z,1.30
2019-03-29T20:27:57.997Z,1.40
2019-03-29T20:30:25.528Z,1.30
2019-03-29T20:32:54.429Z,1.33
2019-03-29T20:35:23.334Z,1.40
2019-03-29T20:37:52.247Z,1.27
2019-03-29T20:40:21.131Z,1.30
2019-03-29T20:42:49.982Z,1.40
2019-03-29T20:45:18.890Z,1.30
2019-03-29T20:47:51.051Z,1.70
2019-03-29T20:50:18.338Z,1.50
2019-03-29T20:52:47.403Z,1.40
2019-03-29T20:55:16.339Z,1.30
2019-03-29T20:57:45.158Z,1.30
2019-03-29T21:00:14.664Z,1.30
2019-03-29T21:02:43.535Z,1.30
2019-03-29T21:05:12.386Z,1.30
2019-03-29T21:07:41.210Z,1.20
2019-03-29T21:10:10.802Z,1.30
2019-03-29T21:12:39.682Z,1.40
2019-03-29T21:15:08.526Z,1.37
2019-03-29T21:17:37.366Z,1.80
2019-03-29T21:20:06.839Z,1.50
2019-03-29T21:22:35.669Z,1.40
2019-03-29T21:25:05.087Z,1.30
2019-03-29T21:27:33.948Z,1.30
2019-03-29T21:30:02.855Z,1.33
2019-03-29T21:32:31.716Z,1.40
2019-03-29T21:35:00.558Z,1.37
2019-03-29T21:37:29.398Z,1.30
2019-03-29T21:39:58.250Z,1.40
2019-03-29T21:42:27.096Z,1.40
2019-03-29T21:44:55.932Z,1.30
2019-03-29T21:47:24.773Z,1.30
2019-03-29T21:49:53.631Z,1.23
2019-03-29T21:52:22.515Z,1.37
2019-03-29T21:54:51.389Z,1.50
2019-03-29T21:57:20.230Z,1.50
2019-03-29T21:59:49.127Z,1.40
2019-03-29T22:02:21.313Z,1.30
2019-03-29T22:04:48.517Z,1.30
2019-03-29T22:07:17.615Z,1.50
2019-03-29T22:09:47.488Z,1.30
2019-03-29T22:12:16.330Z,1.50
2019-03-29T22:14:45.210Z,1.40
2019-03-29T22:17:14.076Z,1.60
2019-03-29T22:19:42.942Z,1.90
2019-03-29T22:22:11.802Z,1.37
2019-03-29T22:24:40.652Z,1.60
2019-03-29T22:27:09.495Z,1.17
2019-03-29T22:29:38.344Z,1.33
2019-03-29T22:32:07.183Z,1.50
2019-03-29T22:34:36.006Z,1.80
2019-03-29T22:37:04.899Z,1.30
2019-03-29T22:39:33.782Z,1.30
2019-03-29T22:42:02.615Z,1.70
2019-03-29T22:44:31.456Z,1.70
2019-03-29T22:47:00.311Z,1.53
2019-03-29T22:49:29.223Z,1.40
2019-03-29T22:51:58.268Z,1.50
2019-03-29T22:54:27.121Z,1.40
2019-03-29T22:56:55.993Z,1.83
2019-03-29T22:59:24.871Z,1.50
2019-03-29T23:01:53.725Z,1.50
2019-03-29T23:04:22.560Z,1.80
2019-03-29T23:06:51.417Z,1.40
2019-03-29T23:09:20.282Z,1.83
2019-03-29T23:11:49.247Z,1.90
2019-03-29T23:14:18.099Z,1.40
2019-03-29T23:16:47.231Z,1.80
2019-03-29T23:19:16.230Z,1.60
2019-03-29T23:21:45.094Z,2.00
2019-03-29T23:24:13.958Z,1.60
2019-03-29T23:26:42.906Z,1.90
2019-03-29T23:29:11.771Z,1.50
2019-03-29T23:31:40.605Z,2.00
2019-03-29T23:34:09.502Z,2.00
2019-03-29T23:36:38.354Z,1.90
2019-03-29T23:39:07.270Z,2.10
2019-03-29T23:41:36.273Z,2.00
2019-03-29T23:44:05.094Z,2.00
2019-03-29T23:46:33.928Z,2.00
2019-03-29T23:49:02.779Z,2.10
2019-03-29T23:51:31.618Z,1.50
2019-03-29T23:54:00.494Z,2.00
2019-03-29T23:56:29.331Z,1.40
2019-03-29T23:58:58.183Z,1.90
